createdAt,value
2018-12-12T00:00:40.034Z,19.20
2018-12-12T00:01:39.791Z,19.40
2018-12-12T00:02:39.691Z,18.80
2018-12-12T00:03:39.589Z,19.70
2018-12-12T00:04:39.486Z,16.50
2018-12-12T00:05:39.398Z,17.70
2018-12-12T00:06:39.276Z,19.50
2018-12-12T00:07:39.179Z,18.50
2018-12-12T00:08:39.069Z,16.70
2018-12-12T00:09:38.973Z,16.90
2018-12-12T00:10:38.882Z,16.30
2018-12-12T00:11:38.765Z,16.00
2018-12-12T00:12:38.660Z,16.70
2018-12-12T00:13:38.624Z,16.60
2018-12-12T00:14:38.563Z,16.60
2018-12-12T00:15:38.370Z,16.40
2018-12-12T00:16:38.258Z,16.80
2018-12-12T00:17:38.151Z,15.00
2018-12-12T00:18:38.049Z,15.20
2018-12-12T00:19:37.946Z,15.90
2018-12-12T00:20:38.174Z,16.40
2018-12-12T00:21:37.857Z,15.30
2018-12-12T00:22:37.636Z,16.50
2018-12-12T00:23:37.530Z,16.80
2018-12-12T00:24:37.435Z,15.20
2018-12-12T00:25:37.346Z,16.20
2018-12-12T00:26:37.224Z,15.70
2018-12-12T00:27:37.126Z,14.70
2018-12-12T00:28:37.127Z,13.40
2018-12-12T00:29:36.920Z,11.90
2018-12-12T00:30:36.834Z,13.80
2018-12-12T00:31:36.719Z,13.30
2018-12-12T00:32:36.613Z,14.50
2018-12-12T00:33:36.509Z,14.50
2018-12-12T00:34:36.406Z,15.10
2018-12-12T00:35:36.419Z,14.70
2018-12-12T00:36:36.202Z,15.00
2018-12-12T00:37:36.096Z,12.70
2018-12-12T00:38:35.998Z,14.10
2018-12-12T00:39:35.890Z,13.30
2018-12-12T00:40:35.802Z,12.70
2018-12-12T00:41:35.683Z,12.60
2018-12-12T00:42:35.688Z,12.90
2018-12-12T00:43:35.478Z,13.30
2018-12-12T00:44:35.378Z,12.90
2018-12-12T00:45:35.293Z,13.00
2018-12-12T00:46:36.089Z,12.00
2018-12-12T00:47:35.071Z,12.00
2018-12-12T00:48:34.964Z,12.20
2018-12-12T00:49:34.965Z,12.90
2018-12-12T00:50:34.778Z,11.90
2018-12-12T00:51:34.660Z,11.90
2018-12-12T00:52:34.561Z,12.30
2018-12-12T00:53:34.454Z,12.40
2018-12-12T00:54:34.350Z,11.70
2018-12-12T00:55:34.268Z,10.50
2018-12-12T00:56:34.268Z,11.80
2018-12-12T00:57:34.045Z,10.80
2018-12-12T00:58:33.939Z,10.30
2018-12-12T00:59:33.838Z,11.00
2018-12-12T01:00:33.752Z,10.90
2018-12-12T01:01:33.634Z,10.60
2018-12-12T01:02:33.532Z,11.10
2018-12-12T01:03:33.534Z,11.30
2018-12-12T01:04:33.323Z,11.30
2018-12-12T01:05:33.241Z,12.20
2018-12-12T01:06:33.123Z,10.40
2018-12-12T01:07:33.064Z,11.00
2018-12-12T01:08:32.915Z,11.20
2018-12-12T01:09:32.812Z,10.60
2018-12-12T01:10:32.823Z,9.40
2018-12-12T01:11:32.605Z,9.30
2018-12-12T01:12:32.504Z,9.40
2018-12-12T01:13:32.404Z,10.70
2018-12-12T01:14:32.299Z,9.00
2018-12-12T01:15:32.213Z,9.40
2018-12-12T01:16:32.095Z,8.00
2018-12-12T01:17:32.090Z,8.50
2018-12-12T01:18:31.889Z,8.90
2018-12-12T01:19:31.784Z,7.80
2018-12-12T01:20:31.700Z,9.80
2018-12-12T01:21:31.579Z,7.90
2018-12-12T01:22:31.482Z,7.50
2018-12-12T01:23:31.376Z,7.70
2018-12-12T01:24:31.277Z,8.10
2018-12-12T01:25:31.186Z,8.50
2018-12-12T01:26:31.067Z,8.70
2018-12-12T01:27:30.963Z,8.00
2018-12-12T01:28:30.863Z,7.50
2018-12-12T01:29:30.760Z,7.40
2018-12-12T01:30:30.678Z,7.80
2018-12-12T01:31:30.655Z,7.70
2018-12-12T01:32:30.453Z,8.00
2018-12-12T01:33:30.351Z,7.50
2018-12-12T01:34:30.249Z,7.50
2018-12-12T01:35:30.151Z,6.90
2018-12-12T01:36:30.064Z,7.60
2018-12-12T01:37:30.064Z,7.40
2018-12-12T01:38:29.837Z,7.00
2018-12-12T01:39:29.733Z,6.80
2018-12-12T01:40:29.647Z,7.30
2018-12-12T01:41:29.526Z,7.30
2018-12-12T01:42:29.425Z,6.80
2018-12-12T01:43:29.327Z,7.40
2018-12-12T01:44:29.223Z,7.00
2018-12-12T01:45:29.118Z,6.50
2018-12-12T01:46:29.033Z,6.80
2018-12-12T01:47:28.915Z,6.60
2018-12-12T01:48:28.812Z,7.00
2018-12-12T01:49:28.710Z,7.60
2018-12-12T01:50:28.609Z,7.00
2018-12-12T01:51:28.534Z,6.80
2018-12-12T01:52:28.401Z,8.00
2018-12-12T01:53:28.295Z,6.70
2018-12-12T01:54:28.198Z,7.20
2018-12-12T01:55:28.093Z,7.00
2018-12-12T01:56:28.005Z,7.50
2018-12-12T01:57:27.889Z,6.90
2018-12-12T01:58:27.788Z,6.90
2018-12-12T01:59:27.686Z,7.30
2018-12-12T02:00:27.600Z,6.10
2018-12-12T02:01:27.498Z,6.40
2018-12-12T02:02:27.375Z,6.30
2018-12-12T02:03:27.273Z,6.20
2018-12-12T02:04:27.169Z,5.90
2018-12-12T02:05:27.070Z,5.60
2018-12-12T02:06:26.983Z,5.90
2018-12-12T02:07:26.863Z,5.50
2018-12-12T02:08:26.758Z,5.60
2018-12-12T02:09:26.655Z,5.60
2018-12-12T02:10:26.554Z,5.50
2018-12-12T02:11:26.467Z,5.40
2018-12-12T02:12:26.348Z,4.80
2018-12-12T02:13:26.251Z,5.20
2018-12-12T02:14:26.146Z,4.90
2018-12-12T02:15:26.042Z,4.90
2018-12-12T02:16:25.956Z,4.50
2018-12-12T02:17:25.836Z,4.60
2018-12-12T02:18:25.738Z,4.60
2018-12-12T02:19:25.630Z,4.70
2018-12-12T02:20:25.528Z,4.10
2018-12-12T02:21:25.445Z,4.50
2018-12-12T02:22:25.324Z,4.30
2018-12-12T02:23:25.225Z,4.20
2018-12-12T02:24:25.116Z,4.10
2018-12-12T02:25:25.018Z,3.60
2018-12-12T02:26:24.930Z,4.40
2018-12-12T02:27:24.811Z,3.90
2018-12-12T02:28:24.706Z,3.70
2018-12-12T02:29:24.606Z,3.80
2018-12-12T02:30:24.505Z,3.70
2018-12-12T02:31:24.416Z,3.70
2018-12-12T02:32:24.300Z,4.10
2018-12-12T02:33:24.196Z,4.20
2018-12-12T02:34:24.091Z,3.90
2018-12-12T02:35:23.992Z,4.20
2018-12-12T02:36:23.905Z,3.20
2018-12-12T02:37:23.786Z,3.50
2018-12-12T02:38:23.685Z,3.50
2018-12-12T02:39:23.578Z,3.30
2018-12-12T02:40:23.477Z,3.20
2018-12-12T02:41:23.391Z,3.10
2018-12-12T02:42:23.275Z,3.10
2018-12-12T02:43:23.176Z,3.10
2018-12-12T02:44:23.075Z,2.90
2018-12-12T02:45:22.965Z,3.10
2018-12-12T02:46:22.882Z,2.90
2018-12-12T02:47:22.770Z,2.80
2018-12-12T02:48:22.660Z,2.60
2018-12-12T02:49:22.561Z,3.00
2018-12-12T02:50:22.451Z,2.50
2018-12-12T02:51:22.368Z,2.70
2018-12-12T02:52:22.250Z,2.60
2018-12-12T02:53:22.151Z,2.40
2018-12-12T02:54:22.055Z,2.30
2018-12-12T02:55:21.942Z,2.60
2018-12-12T02:56:21.866Z,2.70
2018-12-12T02:57:21.736Z,2.60
2018-12-12T02:58:21.632Z,2.50
2018-12-12T02:59:21.533Z,2.70
2018-12-12T03:00:21.433Z,2.50
2018-12-12T03:01:21.448Z,2.70
2018-12-12T03:02:21.219Z,2.80
2018-12-12T03:03:21.118Z,2.80
2018-12-12T03:04:21.016Z,2.80
2018-12-12T03:05:20.917Z,3.20
2018-12-12T03:06:20.829Z,3.00
2018-12-12T03:07:20.711Z,3.50
2018-12-12T03:08:20.704Z,3.20
2018-12-12T03:09:20.503Z,3.10
2018-12-12T03:10:20.407Z,3.00
2018-12-12T03:11:20.316Z,3.10
2018-12-12T03:12:20.199Z,3.30
2018-12-12T03:13:20.097Z,3.30
2018-12-12T03:14:19.995Z,3.70
2018-12-12T03:15:20.004Z,3.90
2018-12-12T03:16:19.802Z,4.00
2018-12-12T03:17:19.685Z,4.00
2018-12-12T03:18:19.583Z,4.00
2018-12-12T03:19:19.484Z,4.10
2018-12-12T03:20:19.377Z,4.30
2018-12-12T03:21:19.293Z,4.70
2018-12-12T03:22:19.278Z,4.60
2018-12-12T03:23:19.073Z,5.20
2018-12-12T03:24:18.968Z,5.30
2018-12-12T03:25:18.864Z,5.40
2018-12-12T03:26:18.763Z,5.30
2018-12-12T03:27:18.676Z,5.50
2018-12-12T03:28:18.559Z,5.20
2018-12-12T03:29:18.553Z,6.10
2018-12-12T03:30:18.359Z,6.20
2018-12-12T03:31:18.252Z,5.50
2018-12-12T03:32:18.164Z,5.50
2018-12-12T03:33:18.049Z,5.20
2018-12-12T03:34:17.943Z,6.20
2018-12-12T03:35:17.856Z,5.80
2018-12-12T03:36:17.841Z,6.20
2018-12-12T03:37:17.653Z,6.20
2018-12-12T03:38:17.534Z,6.10
2018-12-12T03:39:17.434Z,6.20
2018-12-12T03:40:17.326Z,6.50
2018-12-12T03:41:17.226Z,7.50
2018-12-12T03:42:17.152Z,7.20
2018-12-12T03:43:17.140Z,8.20
2018-12-12T03:44:16.915Z,9.40
2018-12-12T03:45:16.816Z,9.30
2018-12-12T03:46:16.717Z,17.30
2018-12-12T03:47:16.629Z,9.40
2018-12-12T03:48:16.507Z,10.50
2018-12-12T03:49:16.405Z,8.50
2018-12-12T03:50:16.404Z,8.40
2018-12-12T03:51:16.202Z,9.20
2018-12-12T03:52:16.115Z,9.20
2018-12-12T03:53:15.994Z,9.00
2018-12-12T03:54:15.896Z,9.40
2018-12-12T03:55:15.790Z,9.00
2018-12-12T03:56:15.693Z,10.10
2018-12-12T03:57:15.698Z,10.40
2018-12-12T03:58:15.482Z,9.00
2018-12-12T03:59:15.377Z,9.50
2018-12-12T04:00:15.280Z,9.50
2018-12-12T04:01:15.171Z,8.70
2018-12-12T04:02:15.088Z,9.50
2018-12-12T04:03:14.967Z,7.60
2018-12-12T04:04:14.969Z,6.70
2018-12-12T04:05:14.763Z,6.20
2018-12-12T04:06:14.661Z,6.60
2018-12-12T04:07:14.575Z,7.00
2018-12-12T04:08:14.454Z,7.40
2018-12-12T04:09:14.350Z,6.50
2018-12-12T04:10:14.247Z,6.30
2018-12-12T04:11:14.143Z,6.20
2018-12-12T04:12:14.060Z,5.60
2018-12-12T04:13:13.941Z,6.20
2018-12-12T04:14:13.835Z,5.20
2018-12-12T04:15:13.734Z,5.50
2018-12-12T04:16:13.631Z,6.10
2018-12-12T04:17:13.542Z,6.40
2018-12-12T04:18:13.526Z,7.00
2018-12-12T04:19:13.337Z,6.70
2018-12-12T04:20:13.223Z,6.80
2018-12-12T04:21:13.121Z,7.20
2018-12-12T04:22:13.029Z,7.50
2018-12-12T04:23:12.910Z,7.30
2018-12-12T04:24:12.933Z,7.50
2018-12-12T04:25:12.704Z,8.80
2018-12-12T04:26:12.601Z,8.30
2018-12-12T04:27:12.515Z,9.70
2018-12-12T04:28:12.394Z,9.50
2018-12-12T04:29:12.289Z,9.60
2018-12-12T04:30:12.185Z,10.80
2018-12-12T04:31:12.088Z,10.60
2018-12-12T04:32:11.995Z,10.90
2018-12-12T04:33:11.877Z,12.10
2018-12-12T04:34:11.776Z,12.60
2018-12-12T04:35:11.675Z,11.80
2018-12-12T04:36:11.569Z,12.30
2018-12-12T04:37:11.480Z,11.40
2018-12-12T04:38:11.366Z,12.50
2018-12-12T04:39:11.261Z,12.70
2018-12-12T04:40:11.157Z,13.00
2018-12-12T04:41:11.050Z,13.00
2018-12-12T04:42:10.969Z,12.30
2018-12-12T04:43:10.952Z,12.50
2018-12-12T04:44:10.744Z,12.60
2018-12-12T04:45:10.642Z,13.00
2018-12-12T04:46:10.537Z,12.20
2018-12-12T04:47:10.452Z,11.60
2018-12-12T04:48:10.330Z,11.50
2018-12-12T04:49:10.233Z,11.80
2018-12-12T04:50:10.128Z,12.10
2018-12-12T04:51:10.019Z,12.20
2018-12-12T04:52:09.937Z,10.60
2018-12-12T04:53:09.816Z,11.30
2018-12-12T04:54:09.711Z,11.40
2018-12-12T04:55:09.608Z,11.00
2018-12-12T04:56:09.505Z,10.30
2018-12-12T04:57:09.416Z,10.00
2018-12-12T04:58:09.301Z,10.70
2018-12-12T04:59:09.197Z,10.30
2018-12-12T05:00:09.146Z,9.90
2018-12-12T05:01:08.990Z,9.10
2018-12-12T05:02:08.909Z,9.00
2018-12-12T05:03:08.785Z,8.70
2018-12-12T05:04:08.682Z,8.20
2018-12-12T05:05:08.577Z,7.90
2018-12-12T05:06:08.479Z,8.40
2018-12-12T05:07:08.393Z,8.30
2018-12-12T05:08:08.269Z,8.50
2018-12-12T05:09:08.166Z,8.80
2018-12-12T05:10:08.060Z,8.20
2018-12-12T05:11:07.960Z,9.40
2018-12-12T05:12:07.872Z,9.50
2018-12-12T05:13:07.751Z,15.60
2018-12-12T05:14:07.647Z,13.30
2018-12-12T05:15:07.566Z,11.40
2018-12-12T05:16:07.448Z,11.40
2018-12-12T05:17:07.340Z,12.10
2018-12-12T05:18:07.254Z,12.10
2018-12-12T05:19:07.137Z,9.70
2018-12-12T05:20:07.029Z,10.10
2018-12-12T05:21:06.926Z,8.90
2018-12-12T05:22:06.826Z,9.10
2018-12-12T05:23:06.740Z,9.70
2018-12-12T05:24:06.619Z,9.70
2018-12-12T05:25:06.515Z,8.50
2018-12-12T05:26:06.413Z,9.30
2018-12-12T05:27:06.313Z,9.00
2018-12-12T05:28:06.222Z,9.20
2018-12-12T05:29:06.106Z,10.00
2018-12-12T05:30:06.004Z,10.70
2018-12-12T05:31:05.897Z,10.60
2018-12-12T05:32:05.800Z,11.20
2018-12-12T05:33:05.708Z,10.60
2018-12-12T05:34:05.592Z,14.00
2018-12-12T05:35:05.489Z,17.40
2018-12-12T05:36:05.387Z,16.30
2018-12-12T05:37:05.280Z,15.80
2018-12-12T05:38:05.193Z,14.00
2018-12-12T05:39:05.074Z,10.90
2018-12-12T05:40:04.972Z,10.30
2018-12-12T05:41:04.870Z,10.20
2018-12-12T05:42:04.867Z,9.70
2018-12-12T05:43:04.680Z,9.80
2018-12-12T05:44:04.566Z,8.90
2018-12-12T05:45:04.460Z,9.50
2018-12-12T05:46:04.357Z,9.50
2018-12-12T05:47:04.253Z,9.40
2018-12-12T05:48:04.163Z,10.20
2018-12-12T05:49:04.145Z,9.50
2018-12-12T05:50:03.942Z,9.30
2018-12-12T05:51:03.840Z,8.80
2018-12-12T05:52:03.739Z,8.60
2018-12-12T05:53:03.653Z,8.80
2018-12-12T05:54:03.534Z,10.10
2018-12-12T05:55:03.430Z,12.60
2018-12-12T05:56:03.429Z,14.40
2018-12-12T05:57:03.223Z,13.20
2018-12-12T05:58:03.137Z,13.00
2018-12-12T05:59:03.020Z,13.50
2018-12-12T06:00:02.911Z,11.50
2018-12-12T06:01:02.813Z,10.00
2018-12-12T06:02:02.708Z,9.60
2018-12-12T06:03:02.722Z,8.50
2018-12-12T06:04:02.504Z,9.10
2018-12-12T06:05:02.397Z,7.80
2018-12-12T06:06:02.296Z,7.20
2018-12-12T06:07:02.194Z,7.50
2018-12-12T06:08:02.104Z,7.00
2018-12-12T06:09:01.985Z,7.20
2018-12-12T06:10:01.989Z,6.80
2018-12-12T06:11:01.783Z,7.00
2018-12-12T06:12:01.676Z,6.70
2018-12-12T06:13:01.593Z,6.50
2018-12-12T06:14:01.470Z,6.50
2018-12-12T06:15:01.368Z,7.00
2018-12-12T06:16:01.262Z,6.50
2018-12-12T06:17:01.262Z,6.00
2018-12-12T06:18:01.076Z,6.20
2018-12-12T06:19:00.955Z,5.70
2018-12-12T06:20:00.871Z,5.70
2018-12-12T06:21:00.751Z,6.10
2018-12-12T06:22:00.645Z,5.60
2018-12-12T06:23:00.561Z,5.90
2018-12-12T06:24:00.441Z,6.10
2018-12-12T06:25:00.335Z,6.40
2018-12-12T06:26:00.234Z,6.20
2018-12-12T06:27:00.129Z,6.00
2018-12-12T06:28:00.046Z,6.00
2018-12-12T06:28:59.928Z,5.90
2018-12-12T06:29:59.821Z,6.30
2018-12-12T06:30:59.780Z,6.30
2018-12-12T06:31:59.618Z,6.30
2018-12-12T06:32:59.528Z,6.40
2018-12-12T06:33:59.411Z,6.30
2018-12-12T06:34:59.306Z,6.90
2018-12-12T06:35:59.212Z,6.50
2018-12-12T06:36:59.209Z,6.30
2018-12-12T06:37:59.012Z,5.50
2018-12-12T06:38:58.891Z,5.30
2018-12-12T06:39:58.787Z,6.30
2018-12-12T06:40:58.690Z,6.00
2018-12-12T06:41:58.581Z,6.40
2018-12-12T06:42:58.500Z,6.50
2018-12-12T06:43:58.376Z,6.40
2018-12-12T06:44:58.274Z,6.20
2018-12-12T06:45:58.169Z,6.30
2018-12-12T06:46:58.072Z,6.60
2018-12-12T06:47:57.978Z,6.60
2018-12-12T06:48:57.860Z,6.80
2018-12-12T06:49:57.757Z,6.40
2018-12-12T06:50:57.656Z,7.40
2018-12-12T06:51:57.553Z,7.40
2018-12-12T06:52:57.467Z,7.40
2018-12-12T06:53:57.347Z,8.10
2018-12-12T06:54:57.246Z,7.90
2018-12-12T06:55:57.161Z,7.80
2018-12-12T06:56:57.035Z,7.90
2018-12-12T06:57:56.956Z,8.80
2018-12-12T06:58:56.833Z,8.70
2018-12-12T06:59:56.798Z,8.20
2018-12-12T07:00:56.626Z,8.30
2018-12-12T07:01:56.526Z,9.30
2018-12-12T07:02:56.423Z,8.20
2018-12-12T07:03:56.331Z,8.20
2018-12-12T07:04:56.216Z,8.60
2018-12-12T07:05:56.128Z,9.10
2018-12-12T07:06:56.004Z,9.30
2018-12-12T07:07:55.903Z,9.00
2018-12-12T07:08:55.815Z,9.10
2018-12-12T07:09:55.699Z,8.40
2018-12-12T07:10:55.595Z,7.70
2018-12-12T07:11:55.488Z,8.40
2018-12-12T07:12:55.389Z,8.00
2018-12-12T07:13:55.302Z,7.70
2018-12-12T07:14:55.179Z,8.30
2018-12-12T07:15:55.079Z,8.10
2018-12-12T07:16:54.973Z,7.50
2018-12-12T07:17:54.873Z,7.50
2018-12-12T07:18:54.785Z,8.20
2018-12-12T07:19:54.665Z,8.50
2018-12-12T07:20:54.563Z,8.00
2018-12-12T07:21:54.463Z,8.00
2018-12-12T07:22:54.362Z,7.80
2018-12-12T07:23:54.268Z,8.00
2018-12-12T07:24:54.148Z,7.90
2018-12-12T07:25:54.043Z,7.90
2018-12-12T07:26:53.946Z,7.90
2018-12-12T07:27:53.839Z,8.30
2018-12-12T07:28:53.753Z,8.70
2018-12-12T07:29:53.635Z,9.20
2018-12-12T07:30:53.530Z,9.40
2018-12-12T07:31:53.426Z,9.40
2018-12-12T07:32:53.323Z,10.70
2018-12-12T07:33:53.238Z,10.20
2018-12-12T07:34:53.156Z,10.40
2018-12-12T07:35:59.291Z,10.70
2018-12-12T07:36:52.914Z,11.20
2018-12-12T07:37:52.808Z,11.40
2018-12-12T07:38:52.723Z,12.70
2018-12-12T07:39:52.607Z,12.30
2018-12-12T07:40:52.501Z,13.20
2018-12-12T07:41:52.408Z,13.30
2018-12-12T07:42:52.295Z,14.20
2018-12-12T07:43:52.205Z,14.30
2018-12-12T07:44:52.090Z,14.90
2018-12-12T07:45:51.985Z,15.60
2018-12-12T07:46:51.988Z,15.10
2018-12-12T07:47:51.775Z,16.30
2018-12-12T07:48:51.695Z,15.80
2018-12-12T07:49:51.573Z,14.20
2018-12-12T07:50:51.472Z,13.60
2018-12-12T07:51:51.369Z,13.90
2018-12-12T07:52:51.267Z,15.20
2018-12-12T07:53:51.280Z,15.30
2018-12-12T07:54:51.060Z,14.20
2018-12-12T07:55:50.956Z,14.20
2018-12-12T07:56:50.851Z,14.80
2018-12-12T07:57:50.750Z,15.40
2018-12-12T07:58:50.668Z,15.20
2018-12-12T07:59:50.543Z,14.90
2018-12-12T08:00:50.548Z,15.30
2018-12-12T08:01:50.336Z,14.40
2018-12-12T08:02:50.238Z,15.00
2018-12-12T08:03:50.151Z,14.80
2018-12-12T08:04:50.026Z,14.50
2018-12-12T08:05:49.923Z,14.90
2018-12-12T08:06:49.822Z,14.40
2018-12-12T08:07:49.819Z,15.20
2018-12-12T08:08:49.636Z,14.90
2018-12-12T08:09:49.524Z,17.00
2018-12-12T08:10:49.408Z,17.10
2018-12-12T08:11:49.308Z,13.70
2018-12-12T08:12:49.202Z,15.30
2018-12-12T08:13:49.118Z,17.00
2018-12-12T08:14:49.099Z,17.10
2018-12-12T08:15:48.898Z,17.50
2018-12-12T08:16:48.794Z,17.00
2018-12-12T08:17:48.693Z,17.80
2018-12-12T08:18:48.620Z,19.10
2018-12-12T08:19:48.483Z,18.10
2018-12-12T08:20:48.381Z,18.70
2018-12-12T08:21:48.382Z,18.30
2018-12-12T08:22:48.176Z,18.10
2018-12-12T08:23:48.090Z,17.70
2018-12-12T08:24:47.972Z,17.40
2018-12-12T08:25:47.871Z,18.70
2018-12-12T08:26:47.766Z,16.40
2018-12-12T08:27:47.679Z,16.90
2018-12-12T08:28:47.698Z,16.20
2018-12-12T08:29:47.454Z,15.60
2018-12-12T08:30:47.355Z,15.10
2018-12-12T08:31:47.251Z,15.60
2018-12-12T08:32:47.151Z,15.90
2018-12-12T08:33:47.061Z,15.00
2018-12-12T08:34:46.940Z,15.00
2018-12-12T08:35:46.946Z,14.60
2018-12-12T08:36:46.737Z,14.00
2018-12-12T08:37:46.638Z,14.60
2018-12-12T08:38:46.533Z,14.40
2018-12-12T08:39:46.446Z,14.10
2018-12-12T08:40:46.324Z,14.40
2018-12-12T08:41:46.222Z,13.90
2018-12-12T08:42:46.222Z,13.40
2018-12-12T08:43:46.038Z,13.80
2018-12-12T08:44:45.913Z,13.30
2018-12-12T08:45:45.811Z,13.40
2018-12-12T08:46:45.715Z,13.30
2018-12-12T08:47:45.606Z,13.60
2018-12-12T08:48:45.504Z,12.10
2018-12-12T08:49:45.519Z,11.80
2018-12-12T08:50:45.297Z,11.90
2018-12-12T08:51:45.199Z,12.20
2018-12-12T08:52:45.097Z,13.00
2018-12-12T08:53:44.993Z,12.90
2018-12-12T08:54:44.906Z,11.60
2018-12-12T08:55:44.783Z,12.40
2018-12-12T08:56:44.785Z,11.70
2018-12-12T08:57:44.578Z,11.60
2018-12-12T08:58:44.499Z,11.80
2018-12-12T08:59:44.394Z,11.60
2018-12-12T09:00:44.272Z,10.70
2018-12-12T09:01:44.172Z,11.00
2018-12-12T09:02:44.069Z,11.20
2018-12-12T09:03:44.070Z,10.60
2018-12-12T09:04:43.881Z,11.40
2018-12-12T09:05:43.763Z,10.50
2018-12-12T09:06:43.672Z,10.70
2018-12-12T09:07:43.550Z,10.20
2018-12-12T09:08:43.453Z,10.00
2018-12-12T09:09:43.469Z,11.30
2018-12-12T09:10:43.246Z,11.40
2018-12-12T09:11:43.145Z,11.40
2018-12-12T09:12:43.041Z,10.30
2018-12-12T09:13:42.950Z,8.70
2018-12-12T09:14:42.854Z,8.80
2018-12-12T09:15:42.737Z,9.10
2018-12-12T09:16:42.636Z,9.10
2018-12-12T09:17:42.530Z,9.10
2018-12-12T09:18:42.430Z,9.50
2018-12-12T09:19:42.343Z,8.90
2018-12-12T09:20:42.223Z,9.00
2018-12-12T09:21:42.120Z,9.00
2018-12-12T09:22:42.021Z,8.80
2018-12-12T09:23:41.920Z,8.70
2018-12-12T09:24:41.833Z,8.10
2018-12-12T09:25:41.712Z,8.10
2018-12-12T09:26:41.610Z,8.40
2018-12-12T09:27:41.507Z,8.70
2018-12-12T09:28:41.406Z,8.20
2018-12-12T09:29:41.317Z,8.00
2018-12-12T09:30:41.200Z,8.30
2018-12-12T09:31:41.099Z,7.30
2018-12-12T09:32:40.996Z,7.10
2018-12-12T09:33:40.894Z,7.30
2018-12-12T09:34:40.805Z,6.80
2018-12-12T09:35:40.687Z,7.50
2018-12-12T09:36:40.592Z,8.10
2018-12-12T09:37:40.486Z,7.70
2018-12-12T09:38:40.380Z,6.60
2018-12-12T09:39:40.296Z,6.10
2018-12-12T09:40:40.177Z,6.10
2018-12-12T09:41:40.076Z,6.10
2018-12-12T09:42:39.974Z,5.80
2018-12-12T09:43:39.869Z,6.40
2018-12-12T09:44:39.784Z,5.50
2018-12-12T09:45:39.664Z,5.30
2018-12-12T09:46:39.563Z,5.10
2018-12-12T09:47:39.464Z,5.20
2018-12-12T09:48:39.356Z,5.50
2018-12-12T09:49:39.277Z,4.40
2018-12-12T09:50:39.156Z,4.90
2018-12-12T09:51:39.051Z,4.70
2018-12-12T09:52:38.953Z,4.90
2018-12-12T09:53:38.848Z,4.90
2018-12-12T09:54:38.765Z,4.20
2018-12-12T09:55:38.643Z,4.10
2018-12-12T09:56:38.549Z,3.60
2018-12-12T09:57:38.442Z,3.60
2018-12-12T09:58:38.340Z,3.20
2018-12-12T09:59:38.251Z,2.70
2018-12-12T10:00:38.133Z,2.30
2018-12-12T10:01:38.032Z,2.20
2018-12-12T10:02:37.934Z,2.40
2018-12-12T10:03:37.834Z,2.80
2018-12-12T10:04:37.749Z,2.80
2018-12-12T10:05:37.632Z,3.00
2018-12-12T10:06:37.536Z,2.90
2018-12-12T10:07:37.429Z,2.90
2018-12-12T10:08:37.330Z,2.90
2018-12-12T10:09:37.247Z,2.40
2018-12-12T10:10:37.132Z,2.50
2018-12-12T10:11:37.032Z,2.00
2018-12-12T10:12:36.933Z,2.00
2018-12-12T10:13:36.831Z,1.80
2018-12-12T10:14:36.748Z,1.60
2018-12-12T10:15:36.630Z,1.70
2018-12-12T10:16:36.534Z,1.80
2018-12-12T10:17:36.435Z,2.00
2018-12-12T10:18:36.335Z,1.70
2018-12-12T10:19:36.250Z,1.70
2018-12-12T10:20:36.145Z,1.80
2018-12-12T10:21:36.041Z,1.90
2018-12-12T10:22:35.934Z,1.90
2018-12-12T10:23:35.835Z,2.10
2018-12-12T10:24:35.754Z,1.90
2018-12-12T10:25:35.636Z,1.80
2018-12-12T10:26:35.545Z,1.50
2018-12-12T10:27:35.438Z,1.40
2018-12-12T10:28:35.338Z,1.20
2018-12-12T10:29:35.257Z,1.20
2018-12-12T10:30:35.144Z,1.40
2018-12-12T10:31:35.044Z,1.40
2018-12-12T10:32:34.945Z,1.50
2018-12-12T10:33:37.859Z,1.50
2018-12-12T10:34:34.752Z,1.80
2018-12-12T10:35:34.665Z,1.90
2018-12-12T10:36:34.554Z,1.70
2018-12-12T10:37:34.453Z,1.70
2018-12-12T10:38:34.357Z,2.20
2018-12-12T10:39:34.263Z,2.30
2018-12-12T10:40:34.191Z,1.90
2018-12-12T10:41:34.066Z,2.00
2018-12-12T10:42:33.965Z,1.70
2018-12-12T10:43:33.870Z,2.30
2018-12-12T10:44:33.770Z,2.20
2018-12-12T10:45:33.714Z,2.40
2018-12-12T10:46:33.574Z,2.50
2018-12-12T10:47:33.475Z,2.50
2018-12-12T10:48:33.378Z,2.30
2018-12-12T10:49:33.283Z,2.80
2018-12-12T10:50:33.198Z,2.40
2018-12-12T10:51:33.092Z,3.40
2018-12-12T10:52:32.984Z,3.30
2018-12-12T10:53:32.885Z,2.30
2018-12-12T10:54:32.794Z,2.30
2018-12-12T10:55:33.111Z,1.80
2018-12-12T10:56:32.596Z,1.50
2018-12-12T10:57:32.492Z,1.50
2018-12-12T10:58:32.397Z,1.60
2018-12-12T10:59:32.294Z,1.60
2018-12-12T11:00:32.209Z,1.70
2018-12-12T11:01:32.093Z,1.70
2018-12-12T11:02:32.098Z,1.50
2018-12-12T11:03:31.894Z,1.40
2018-12-12T11:04:31.797Z,1.40
2018-12-12T11:05:31.713Z,2.00
2018-12-12T11:06:31.596Z,1.70
2018-12-12T11:07:31.496Z,1.90
2018-12-12T11:08:31.400Z,1.90
2018-12-12T11:09:31.413Z,2.00
2018-12-12T11:10:31.215Z,2.10
2018-12-12T11:11:31.094Z,2.10
2018-12-12T11:12:30.994Z,2.00
2018-12-12T11:13:30.896Z,2.00
2018-12-12T11:14:30.793Z,2.00
2018-12-12T11:15:30.722Z,2.00
2018-12-12T11:16:30.703Z,1.90
2018-12-12T11:17:30.498Z,1.90
2018-12-12T11:18:30.398Z,2.20
2018-12-12T11:19:30.293Z,2.00
2018-12-12T11:20:30.216Z,1.70
2018-12-12T11:21:30.094Z,1.60
2018-12-12T11:22:29.997Z,1.60
2018-12-12T11:23:29.895Z,1.60
2018-12-12T11:24:29.795Z,1.80
2018-12-12T11:25:29.714Z,1.70
2018-12-12T11:26:29.601Z,1.90
2018-12-12T11:27:29.516Z,2.30
2018-12-12T11:28:29.396Z,2.10
2018-12-12T11:29:29.300Z,2.30
2018-12-12T11:30:29.317Z,2.10
2018-12-12T11:31:29.101Z,2.50
2018-12-12T11:32:28.998Z,2.40
2018-12-12T11:33:28.901Z,2.30
2018-12-12T11:34:28.801Z,2.30
2018-12-12T11:35:28.717Z,2.40
2018-12-12T11:36:28.601Z,2.60
2018-12-12T11:37:28.626Z,2.50
2018-12-12T11:38:28.401Z,2.30
2018-12-12T11:39:28.300Z,2.40
2018-12-12T11:40:28.220Z,2.50
2018-12-12T11:41:28.138Z,2.30
2018-12-12T11:42:28.003Z,2.60
2018-12-12T11:43:28.033Z,2.00
2018-12-12T11:44:27.801Z,2.30
2018-12-12T11:45:27.720Z,2.30
2018-12-12T11:46:27.606Z,2.40
2018-12-12T11:47:27.500Z,2.50
2018-12-12T11:48:27.399Z,2.50
2018-12-12T11:49:27.300Z,2.40
2018-12-12T11:50:27.220Z,2.70
2018-12-12T11:51:27.099Z,2.50
2018-12-12T11:52:26.999Z,2.40
2018-12-12T11:53:26.898Z,2.50
2018-12-12T11:54:26.801Z,2.50
2018-12-12T11:55:26.715Z,2.50
2018-12-12T11:56:26.613Z,2.00
2018-12-12T11:57:26.495Z,2.00
2018-12-12T11:58:26.395Z,2.50
2018-12-12T11:59:26.292Z,2.10
2018-12-12T12:00:26.207Z,2.30
2018-12-12T12:01:26.090Z,2.70
2018-12-12T12:02:25.990Z,3.30
2018-12-12T12:03:25.888Z,3.80
2018-12-12T12:04:25.789Z,3.20
2018-12-12T12:05:25.702Z,3.70
2018-12-12T12:06:25.587Z,3.60
2018-12-12T12:07:25.486Z,3.80
2018-12-12T12:08:25.383Z,3.70
2018-12-12T12:09:25.287Z,3.70
2018-12-12T12:10:25.197Z,3.20
2018-12-12T12:11:25.081Z,3.30
2018-12-12T12:12:24.978Z,3.40
2018-12-12T12:13:24.879Z,3.60
2018-12-12T12:14:24.783Z,3.90
2018-12-12T12:15:24.695Z,3.80
2018-12-12T12:16:24.577Z,4.10
2018-12-12T12:17:24.473Z,3.90
2018-12-12T12:18:24.373Z,4.10
2018-12-12T12:19:24.272Z,4.30
2018-12-12T12:20:24.170Z,4.60
2018-12-12T12:21:24.095Z,4.40
2018-12-12T12:22:23.977Z,4.30
2018-12-12T12:23:23.864Z,4.90
2018-12-12T12:24:24.371Z,5.00
2018-12-12T12:25:23.664Z,4.40
2018-12-12T12:26:23.580Z,4.60
2018-12-12T12:27:23.461Z,4.70
2018-12-12T12:28:23.359Z,4.50
2018-12-12T12:29:23.260Z,4.50
2018-12-12T12:30:23.157Z,4.90
2018-12-12T12:31:23.073Z,3.90
2018-12-12T12:32:22.965Z,4.40
2018-12-12T12:33:22.855Z,4.10
2018-12-12T12:34:22.750Z,3.80
2018-12-12T12:35:22.654Z,3.90
2018-12-12T12:36:22.564Z,3.90
2018-12-12T12:37:22.452Z,3.50
2018-12-12T12:38:22.346Z,3.10
2018-12-12T12:39:22.254Z,3.40
2018-12-12T12:40:22.149Z,3.30
2018-12-12T12:41:22.058Z,3.40
2018-12-12T12:42:21.945Z,3.00
2018-12-12T12:43:21.843Z,2.80
2018-12-12T12:44:21.745Z,2.90
2018-12-12T12:45:21.645Z,2.80
2018-12-12T12:46:21.558Z,3.10
2018-12-12T12:47:21.439Z,3.30
2018-12-12T12:48:21.342Z,3.40
2018-12-12T12:49:21.247Z,3.80
2018-12-12T12:50:21.140Z,3.60
2018-12-12T12:51:21.055Z,3.70
2018-12-12T12:52:20.938Z,3.90
2018-12-12T12:53:20.940Z,3.90
2018-12-12T12:54:20.740Z,4.30
2018-12-12T12:55:20.639Z,4.30
2018-12-12T12:56:20.562Z,4.20
2018-12-12T12:57:20.442Z,4.40
2018-12-12T12:58:20.341Z,4.80
2018-12-12T12:59:20.239Z,5.00
2018-12-12T13:00:20.242Z,4.50
2018-12-12T13:01:20.057Z,5.20
2018-12-12T13:02:19.936Z,5.50
2018-12-12T13:03:19.841Z,4.80
2018-12-12T13:04:19.739Z,5.10
2018-12-12T13:05:19.634Z,5.20
2018-12-12T13:06:19.553Z,5.30
2018-12-12T13:07:19.537Z,4.70
2018-12-12T13:08:19.335Z,5.10
2018-12-12T13:09:19.229Z,4.70